DRI Storm Peak Lab. Weather observations

Data are for 5 minute period ending at time listed.
 Day   Time    Ave.   Ave.  Ave.  Vector  Max.   Total    Baro.    Solar      Aerosol      Ave.  Ultrafine   Snow  
  of    of     Air    Rel.  Wind   Wind   Wind  Precip.   Pres.  Radiation   Aerosol      Ozone   Aerosol    Depth 
Year   Day     Temp.  Hum.  Speed  Dir.   Gust                               Ave.   Max.            Ave.           
2018   (MST)    F      %     mph   deg.    mph    in.      mb.     w/m2         #/cm3      ppbv    #/cm3      in.  
-------------------------------------------------------------------------------------------------------------------
 288    4:25    0.4    94    2.3   263     4.2   999.00    690.9    999.0    999000   999000   999.0    999000   999.0
 288    4:30    0.5    95    3.8   263     4.6   999.00    690.9    999.0    999000   999000   999.0    999000   999.0
 288    4:35    0.8    96    3.4   263     4.2   999.00    691.0    999.0    999000   999000   999.0    999000   999.0
 288    4:40    1.2    97    3.3   263     3.7   999.00    691.0    999.0    999000   999000   999.0    999000   999.0
 288    4:45    1.6    97    3.6   263     4.4   999.00    691.0    999.0    999000   999000   999.0    999000   999.0
 288    4:50    1.8    97    4.1   263     4.6   999.00    691.0    999.0    999000   999000   999.0    999000   999.0
 288    4:55    1.9    97    4.6   263     6.5   999.00    691.1    999.0    999000   999000   999.0    999000   999.0
 288    5:00    2.2    97    5.0   264     6.3   999.00    691.0    999.0    999000   999000   999.0    999000   999.0
 288    5:05    2.4    97    4.9   265     6.3   999.00    691.1    999.0    999000   999000   999.0    999000   999.0
 288    5:10    2.6    98    4.9   265     5.9   999.00    691.1    999.0    999000   999000   999.0    999000   999.0
 288    5:15    2.8    97    4.4   265     5.2   999.00    691.2    999.0    999000   999000   999.0    999000   999.0
 288    5:20    2.6    97    4.3   265     5.2   999.00    691.2    999.0    999000   999000   999.0    999000   999.0
 288    5:25    2.5    97    4.2   265     5.9   999.00    691.2    999.0    999000   999000   999.0    999000   999.0
 288    5:30    2.4    96    3.6   265     5.9   999.00    691.2    999.0    999000   999000   999.0    999000   999.0
 288    5:35    2.4    96    3.3   265     4.0   999.00    691.2    999.0    999000   999000   999.0    999000   999.0
 288    5:40    2.4    96    4.1   265     5.2   999.00    691.2    999.0    999000   999000   999.0    999000   999.0
 288    5:45    2.8    97    3.6   265     4.4   999.00    691.2    999.0    999000   999000   999.0    999000   999.0
 288    5:50    2.9    97    3.6   265     4.0   999.00    691.3    999.0    999000   999000   999.0    999000   999.0
 288    5:55    2.8    97    4.4   265     5.5   999.00    691.2    999.0    999000   999000   999.0    999000   999.0
 288    6:00    3.0    97    3.6   265     4.6   999.00    691.2    999.0    999000   999000   999.0    999000   999.0
 288    6:05    3.0    97    3.4   265     3.8   999.00    691.3    999.0    999000   999000   999.0    999000   999.0
 288    6:10    3.1    97    4.3   265     5.3   999.00    691.3    999.0    999000   999000   999.0    999000   999.0
 288    6:15    3.1    97    4.3   265     5.3   999.00    691.3    999.0    999000   999000   999.0    999000   999.0
 288    6:20    3.2    97    3.8   265     4.4   999.00    691.3    999.0    999000   999000   999.0    999000   999.0
 288    6:25    3.0    97    4.3   265     4.6   999.00    691.3    999.0    999000   999000   999.0    999000   999.0
 288    6:30    2.9    96    4.8   265     5.3   999.00    691.3    999.0    999000   999000   999.0    999000   999.0
 288    6:35    2.7    96    4.5   265     5.2   999.00    691.4    999.0    999000   999000   999.0    999000   999.0
 288    6:40    2.6    96    4.4   265     5.0   999.00    691.4    999.0    999000   999000   999.0    999000   999.0
 288    6:45    2.8    97    4.4   265     5.2   999.00    691.5    999.0    999000   999000   999.0    999000   999.0
 288    6:50    2.8    97    4.0   265     4.6   999.00    691.5    999.0    999000   999000   999.0    999000   999.0
 288    6:55    3.0    97    4.2   265     5.3   999.00    691.6    999.0    999000   999000   999.0    999000   999.0
 288    7:00    3.1    97    3.7   265     4.2   999.00    691.5    999.0    999000   999000   999.0    999000   999.0
 288    7:05    3.2    97    5.3   265     6.6   999.00    691.6    999.0    999000   999000   999.0    999000   999.0
 288    7:10    3.5    98    5.9   265     6.8   999.00    691.6    999.0    999000   999000   999.0    999000   999.0
 288    7:15    4.2    98    4.9   265     5.9   999.00    691.7    999.0    999000   999000   999.0    999000   999.0
 288    7:20    4.9    99    5.9   265     7.9   999.00    691.7    999.0    999000   999000   999.0    999000   999.0
 288    7:25    5.2    99    4.2   265     5.3   999.00    691.8    999.0    999000   999000   999.0    999000   999.0
 288    7:30    5.3    99    3.9   265     5.0   999.00    691.8    999.0    999000   999000   999.0    999000   999.0
 288    7:35    5.2    98    4.4   265     5.5   999.00    691.9    999.0    999000   999000   999.0    999000   999.0
 288    7:40    5.2    98    4.2   265     5.5   999.00    691.9    999.0    999000   999000   999.0    999000   999.0
 288    7:45    5.3    98    4.5   265     6.1   999.00    692.0    999.0    999000   999000   999.0    999000   999.0
 288    7:50    5.6    99    6.0   265     7.2   999.00    692.0    999.0    999000   999000   999.0    999000   999.0
 288    7:55    5.7    99    5.4   265     6.5   999.00    692.1    999.0    999000   999000   999.0    999000   999.0
 288    8:00    5.9    99    5.5   265     6.1   999.00    692.1    999.0    999000   999000   999.0    999000   999.0
 288    8:05    6.1    99    5.8   265     6.5   999.00    692.2    999.0    999000   999000   999.0    999000   999.0
 288    8:10    6.2    99    5.6   265     6.3   999.00    692.3    999.0    999000   999000   999.0    999000   999.0
 288    8:15    6.3    99    5.7   265     7.0   999.00    692.3    999.0    999000   999000   999.0    999000   999.0
 288    8:20    6.3    99    5.3   265     5.7   999.00    692.3    999.0    999000   999000   999.0    999000   999.0
 288    8:25    6.5    99    5.1   265     5.9   999.00    692.4    999.0    999000   999000   999.0    999000   999.0
 288    8:30    6.7    99    4.3   265     5.2   999.00    692.5    999.0    999000   999000   999.0    999000   999.0
 288    8:35    6.9    98    4.3   265     5.5   999.00    692.5    999.0    999000   999000   999.0    999000   999.0
 288    8:40    7.0    98    4.3   265     5.5   999.00    692.5    999.0    999000   999000   999.0    999000   999.0
 288    8:45    7.2    98    5.2   265     6.8   999.00    692.5    999.0    999000   999000   999.0    999000   999.0
 288    8:50    7.5    98    5.2   265     7.2   999.00    692.5    999.0    999000   999000   999.0    999000   999.0
 288    8:55    7.7    99    5.1   265     6.5   999.00    692.5    999.0    999000   999000   999.0    999000   999.0
 288    9:00    7.7    99    5.1   265     6.3   999.00    692.5    999.0    999000   999000   999.0    999000   999.0
 288    9:05    7.9    98    6.3   265     7.8   999.00    692.6    999.0    999000   999000   999.0    999000   999.0
 288    9:10    8.0    98    5.3   265     6.1   999.00    692.6    999.0    999000   999000   999.0    999000   999.0
 288    9:15    8.1    98    4.9   265     6.3   999.00    692.6    999.0    999000   999000   999.0    999000   999.0
 288    9:20    8.6    98    3.3   265     4.6   999.00    692.7    999.0    999000   999000   999.0    999000   999.0
 288    9:25   10.9   100    3.3   265     5.0   999.00    692.7    999.0    999000   999000   999.0    999000   999.0
 288    9:30   12.4   100    2.6   265     4.4   999.00    692.7    999.0    999000   999000   999.0    999000   999.0
 288    9:35   13.9   100    3.6   265     5.2   999.00    692.8    999.0    999000   999000   999.0    999000   999.0
 288    9:40   14.7   100    4.0   265     5.3   999.00    692.8    999.0    999000   999000   999.0    999000   999.0
 288    9:45   14.8   100    4.2   265     7.0   999.00    692.8    999.0    999000   999000   999.0    999000   999.0
 288    9:50   15.3   100    3.6   265     5.2   999.00    692.8    999.0    999000   999000   999.0    999000   999.0
 288    9:55   15.8   100    3.7   265     5.3   999.00    692.8    999.0    999000   999000   999.0    999000   999.0
 288   10:00   15.8   100    4.7   265     6.5   999.00    692.9    999.0    999000   999000   999.0    999000   999.0
 288   10:05   15.6   100    3.5   265     5.5   999.00    692.9    999.0    999000   999000   999.0    999000   999.0
 288   10:10   16.5   100    2.7   265     4.0   999.00    692.9    999.0    999000   999000   999.0    999000   999.0
 288   10:15   16.3   100    3.4   265     4.6   999.00    692.9    999.0    999000   999000   999.0    999000   999.0
 288   10:20   15.5   100    4.2   265     5.5   999.00    692.9    999.0    999000   999000   999.0    999000   999.0
 288   10:25   16.3   100    3.2   265     4.2   999.00    692.9    999.0    999000   999000   999.0    999000   999.0
 288   10:30   16.9   100    3.4   265     4.6   999.00    693.0    999.0    999000   999000   999.0    999000   999.0
 288   10:35   17.0   100    3.6   265     4.8   999.00    693.0    999.0    999000   999000   999.0    999000   999.0
 288   10:40   17.4   100    2.3   265     3.7   999.00    693.0    999.0    999000   999000   999.0    999000   999.0
 288   10:45   16.9   100    2.6   265     3.7   999.00    693.0    999.0    999000   999000   999.0    999000   999.0
 288   10:50   14.9   100    2.2   265     3.7   999.00    693.0    999.0    999000   999000   999.0    999000   999.0
 288   10:55   16.3   100    2.0   265     3.1   999.00    693.1    999.0    999000   999000   999.0    999000   999.0
 288   11:00   16.9   100    2.3   265     3.5   999.00    693.1    999.0    999000   999000   999.0    999000   999.0
 288   11:05   15.4   100    2.1   265     3.7   999.00    693.1    999.0    999000   999000   999.0    999000   999.0
 288   11:10   15.9   100    2.9   265     4.4   999.00    693.1    999.0    999000   999000   999.0    999000   999.0
 288   11:15   14.2    99    4.4   265     6.8   999.00    693.1    999.0    999000   999000   999.0    999000   999.0
 288   11:20   13.0    98    3.5   265     5.2   999.00    693.1    999.0    999000   999000   999.0    999000   999.0
 288   11:25   13.7   100    2.2   265     4.4   999.00    693.1    999.0    999000   999000   999.0    999000   999.0
 288   11:30   14.5   100    2.1   265     3.3   999.00    693.1    999.0    999000   999000   999.0    999000   999.0
 288   11:35   15.7   100    4.0   265     5.5   999.00    693.1    999.0    999000   999000   999.0    999000   999.0
 288   11:40   14.6   100    4.3   265     7.2   999.00    693.1    999.0    999000   999000   999.0    999000   999.0
 288   11:45   17.1   100    2.2   265     5.5   999.00    693.1    999.0    999000   999000   999.0    999000   999.0
 288   11:50   16.6   100    2.9   265     5.5   999.00    693.1    999.0    999000   999000   999.0    999000   999.0
 288   11:55   18.2   100    2.2   264     3.7   999.00    693.1    999.0    999000   999000   999.0    999000   999.0
 288   12:00   17.5   100    2.8   264     4.8   999.00    693.2    999.0    999000   999000   999.0    999000   999.0
 288   12:05   15.8   100    3.7   264     5.2   999.00    693.2    999.0    999000   999000   999.0    999000   999.0
 288   12:10   14.9   100    3.2   264     4.8   999.00    693.2    999.0    999000   999000   999.0    999000   999.0
 288   12:15   15.2   100    2.1   264     3.7   999.00    693.2    999.0    999000   999000   999.0    999000   999.0
 288   12:20   17.7   100    2.1   264     3.8   999.00    693.2    999.0    999000   999000   999.0    999000   999.0
 288   12:25   16.6   100    4.2   264     6.1   999.00    693.2    999.0    999000   999000   999.0    999000   999.0
 288   12:30   15.2   100    3.9   264     6.3   999.00    693.2    999.0    999000   999000   999.0    999000   999.0
 288   12:35   15.4   100    2.9   264     5.7   999.00    693.2    999.0    999000   999000   999.0    999000   999.0
 288   12:40   17.8   100    1.8   264     1.8   999.00    693.2    999.0    999000   999000   999.0    999000   999.0
 288   12:45   18.9   100    1.8   264     1.8   999.00    693.2    999.0    999000   999000   999.0    999000   999.0
 288   12:50   18.1   100    2.3   264     4.2   999.00    693.2    999.0    999000   999000   999.0    999000   999.0
 288   12:55   17.3   100    3.1   264     4.8   999.00    693.2    999.0    999000   999000   999.0    999000   999.0
 288   13:00   16.9   100    2.2   264     4.0   999.00    693.2    999.0    999000   999000   999.0    999000   999.0
 288   13:05   18.1   100    3.2   264     5.7   999.00    693.2    999.0    999000   999000   999.0    999000   999.0
 288   13:10   17.0   100    2.2   264     4.0   999.00    693.2    999.0    999000   999000   999.0    999000   999.0
 288   13:15   17.5   100    3.3   264     4.4   999.00    693.2    999.0    999000   999000   999.0    999000   999.0
 288   13:20   17.3   100    3.8   264     4.4   999.00    693.2    999.0    999000   999000   999.0    999000   999.0
 288   13:25   17.5   100    2.4   264     3.8   999.00    693.1    999.0    999000   999000   999.0    999000   999.0
 288   13:30   17.7   100    2.9   264     5.0   999.00    693.1    999.0    999000   999000   999.0    999000   999.0
 288   13:35   18.4   100    3.5   264     6.5   999.00    693.2    999.0    999000   999000   999.0    999000   999.0
 288   13:40   18.2   100    2.7   264     5.0   999.00    693.2    999.0    999000   999000   999.0    999000   999.0
 288   13:45   19.4   100    1.8   264     2.0   999.00    693.1    999.0    999000   999000   999.0    999000   999.0
 288   13:50   22.2   100    1.8   264     1.8   999.00    693.1    999.0    999000   999000   999.0    999000   999.0
 288   13:55   24.2   100    3.1   264     4.2   999.00    693.2    999.0    999000   999000   999.0    999000   999.0
 288   14:00   21.9   100    3.5   264     5.7   999.00    693.2    999.0    999000   999000   999.0    999000   999.0
 288   14:05   19.8   100    2.9   264     4.2   999.00    693.2    999.0    999000   999000   999.0    999000   999.0
 288   14:10   20.3   100    1.8   264     1.8   999.00    693.2    999.0    999000   999000   999.0    999000   999.0
 288   14:15   21.8   100    1.8   264     1.8   999.00    693.2    999.0    999000   999000   999.0    999000   999.0
 288   14:20   22.6   100    1.8   264     1.8   999.00    693.2    999.0    999000   999000   999.0    999000   999.0
 288   14:25   21.7   100    1.8   264     1.8   999.00    693.3    999.0    999000   999000   999.0    999000   999.0
 288   14:30   23.6   100    1.8   264     1.8   999.00    693.3    999.0    999000   999000   999.0    999000   999.0
 288   14:35   24.4   100    1.8   264     1.8   999.00    693.3    999.0    999000   999000   999.0    999000   999.0
 288   14:40   24.2   100    3.3   264     4.4   999.00    693.3    999.0    999000   999000   999.0    999000   999.0
 288   14:45   23.5   100    1.9   264     2.9   999.00    693.3    999.0    999000   999000   999.0    999000   999.0
 288   14:50   23.5   100    1.8   264     1.8   999.00    693.3    999.0    999000   999000   999.0    999000   999.0
 288   14:55   24.3   100    1.8   264     1.8   999.00    693.3    999.0    999000   999000   999.0    999000   999.0
 288   15:00   24.9   100    1.8   264     1.8   999.00    693.3    999.0    999000   999000   999.0    999000   999.0
 288   15:05   23.8   100    1.8   264     1.8   999.00    693.3    999.0    999000   999000   999.0    999000   999.0
 288   15:10   23.3   100    1.8   264     1.8   999.00    693.4    999.0    999000   999000   999.0    999000   999.0
 288   15:15   23.8   100    1.8   264     1.8   999.00    693.5    999.0    999000   999000   999.0    999000   999.0
 288   15:20   24.8   100    1.8   265     1.8   999.00    693.5    999.0    999000   999000   999.0    999000   999.0
 288   15:25   25.0   100    1.8   265     1.8   999.00    693.4    999.0    999000   999000   999.0    999000   999.0
 288   15:30   25.3   100    1.8   265     1.8   999.00    693.4    999.0    999000   999000   999.0    999000   999.0
 288   15:35   24.8   100    1.8   265     1.8   999.00    693.4    999.0    999000   999000   999.0    999000   999.0
 288   15:40   24.1   100    1.9   265     2.7   999.00    693.4    999.0    999000   999000   999.0    999000   999.0
 288   15:45   23.9   100    1.8   265     1.8   999.00    693.4    999.0    999000   999000   999.0    999000   999.0
 288   15:50   24.2   100    1.9   265     3.5   999.00    693.4    999.0    999000   999000   999.0    999000   999.0
 288   15:55   23.8   100    3.0   264     6.8   999.00    693.4    999.0    999000   999000   999.0    999000   999.0
 288   16:00   23.7   100    2.6   264     5.3   999.00    693.4    999.0    999000   999000   999.0    999000   999.0
 288   16:05   21.7    98    3.2   268     5.5   999.00    693.5    999.0    999000   999000   999.0    999000   999.0
 288   16:10   20.9    99    2.2   268     3.7   999.00    693.5    999.0    999000   999000   999.0    999000   999.0
 288   16:15   21.6   100    2.8   268     4.6   999.00    693.5    999.0    999000   999000   999.0    999000   999.0
 288   16:20   22.3   100    1.8   267     1.8   999.00    693.5    999.0    999000   999000   999.0    999000   999.0
 288   16:25   22.8   100    2.9   268     5.9   999.00    693.5    999.0    999000   999000   999.0    999000   999.0
 288   16:30   22.3    99    3.1   269     5.9   999.00    693.5    999.0    999000   999000   999.0    999000   999.0
 288   16:35   22.6   100    1.9   268     3.5   999.00    693.4    999.0    999000   999000   999.0    999000   999.0
 288   16:40   22.9   100    1.9   268     3.1   999.00    693.4    999.0    999000   999000   999.0    999000   999.0
 288   16:45   22.9    99    3.1   268     3.8   999.00    693.4    999.0    999000   999000   999.0    999000   999.0
 288   16:50   22.0    95    2.7   268     3.8   999.00    693.4    999.0    999000   999000   999.0    999000   999.0
 288   16:55   20.1    90    4.0   269     5.3   999.00    693.5    999.0    999000   999000   999.0    999000   999.0
 288   17:00   18.7    93    1.9   269     3.3   999.00    693.5    999.0    999000   999000   999.0    999000   999.0
 288   17:05   20.3    99    1.9   269     2.9   999.00    693.6    999.0    999000   999000   999.0    999000   999.0
 288   17:10   20.6    97    1.8   269     1.8   999.00    693.6    999.0    999000   999000   999.0    999000   999.0
 288   17:15   19.6    92    1.9   269     3.1   999.00    693.6    999.0    999000   999000   999.0    999000   999.0
 288   17:20   18.2    90    2.5   269     3.8   999.00    693.5    999.0    999000   999000   999.0    999000   999.0
 288   17:25   17.9    94    2.0   269     3.7   999.00    693.5    999.0    999000   999000   999.0    999000   999.0
 288   17:30   18.1    99    1.8   269     1.8   999.00    693.5    999.0    999000   999000   999.0    999000   999.0
 288   17:35   17.7    97    1.8   269     1.8   999.00    693.5    999.0    999000   999000   999.0    999000   999.0
 288   17:40   16.8    97    3.0   269     5.5   999.00    693.5    999.0    999000   999000   999.0    999000   999.0
 288   17:45   16.2    90    3.6   269     4.2   999.00    693.6    999.0    999000   999000   999.0    999000   999.0
 288   17:50   16.0    89    4.2   269     5.5   999.00    693.6    999.0    999000   999000   999.0    999000   999.0
 288   17:55   16.1    88    4.2   269     4.8   999.00    693.6    999.0    999000   999000   999.0    999000   999.0
 288   18:00   16.1    85    4.0   269     5.3   999.00    693.6    999.0    999000   999000   999.0    999000   999.0
 288   18:05   15.8    90    3.0   269     3.8   999.00    693.6    999.0    999000   999000   999.0    999000   999.0
 288   18:10   15.6    88    3.2   269     4.4   999.00    693.6    999.0    999000   999000   999.0    999000   999.0
 288   18:15   15.5    92    2.2   268     3.3   999.00    693.6    999.0    999000   999000   999.0    999000   999.0
 288   18:20   15.1    93    1.9   268     3.1   999.00    693.6    999.0    999000   999000   999.0    999000   999.0
 288   18:25   14.8    93    2.0   268     3.1   999.00    693.7    999.0    999000   999000   999.0    999000   999.0
 288   18:30   14.7    93    1.8   268     1.8   999.00    693.7    999.0    999000   999000   999.0    999000   999.0
 288   18:35   14.2    94    1.8   268     1.8   999.00    693.7    999.0    999000   999000   999.0    999000   999.0
 288   18:40   14.1    94    1.8   268     1.8   999.00    693.7    999.0    999000   999000   999.0    999000   999.0
 288   18:45   14.2    93    1.8   268     2.7   999.00    693.7    999.0    999000   999000   999.0    999000   999.0
 288   18:50   14.3    93    1.9   268     2.9   999.00    693.8    999.0    999000   999000   999.0    999000   999.0
 288   18:55   14.8    91    2.7   268     4.0   999.00    693.8    999.0    999000   999000   999.0    999000   999.0
 288   19:00   15.7    84    4.8   268     6.1   999.00    693.8    999.0    999000   999000   999.0    999000   999.0
 288   19:05   16.7    76    5.7   269     7.0   999.00    693.8    999.0    999000   999000   999.0    999000   999.0
 288   19:10   17.1    73    5.5   270     7.2   999.00    693.8    999.0    999000   999000   999.0    999000   999.0
 288   19:15   17.0    71    5.0   270     6.5   999.00    693.8    999.0    999000   999000   999.0    999000   999.0
 288   19:20   16.7    76    2.7   270     5.9   999.00    693.8    999.0    999000   999000   999.0    999000   999.0
 288   19:25   15.6    82    1.8   269     1.8   999.00    693.7    999.0    999000   999000   999.0    999000   999.0
 288   19:30   14.9    84    1.8   269     2.5   999.00    693.8    999.0    999000   999000   999.0    999000   999.0
 288   19:35   14.7    80    2.9   269     4.6   999.00    693.8    999.0    999000   999000   999.0    999000   999.0
 288   19:40   15.8    72    3.5   269     5.5   999.00    693.8    999.0    999000   999000   999.0    999000   999.0
 288   19:45   16.4    68    5.4   271     7.0   999.00    693.8    999.0    999000   999000   999.0    999000   999.0
 288   19:50   17.7    65    6.5   283     7.6   999.00    693.8    999.0    999000   999000   999.0    999000   999.0
 288   19:55   17.8    63    5.7   283     6.8   999.00    693.8    999.0    999000   999000   999.0    999000   999.0
 288   20:00   16.9    70    2.4   283     3.5   999.00    693.8    999.0    999000   999000   999.0    999000   999.0
 288   20:05   15.8    71    4.3   283     6.1   999.00    693.9    999.0    999000   999000   999.0    999000   999.0
 288   20:10   16.2    67    3.6   283     5.3   999.00    693.9    999.0    999000   999000   999.0    999000   999.0
 288   20:15   15.6    73    3.5   283     4.6   999.00    693.9    999.0    999000   999000   999.0    999000   999.0
 288   20:20   15.1    74    2.8   283     4.8   999.00    693.9    999.0    999000   999000   999.0    999000   999.0
 288   20:25   16.8    67    5.7   283     6.5   999.00    694.0    999.0    999000   999000   999.0    999000   999.0
 288   20:30   18.1    64    5.2   283     5.9   999.00    694.0    999.0    999000   999000   999.0    999000   999.0
 288   20:35   17.7    65    5.2   283     6.3   999.00    694.0    999.0    999000   999000   999.0    999000   999.0
 288   20:40   17.6    65    6.0   283     6.6   999.00    694.0    999.0    999000   999000   999.0    999000   999.0
 288   20:45   17.5    64    6.1   283     7.0   999.00    694.0    999.0    999000   999000   999.0    999000   999.0
 288   20:50   17.5    66    6.2   283     7.2   999.00    694.0    999.0    999000   999000   999.0    999000   999.0
 288   20:55   17.7    65    4.5   283     6.6   999.00    694.0    999.0    999000   999000   999.0    999000   999.0
 288   21:00   17.4    67    6.3   283     7.6   999.00    694.1    999.0    999000   999000   999.0    999000   999.0
 288   21:05   18.4    66    7.0   283     7.6   999.00    694.1    999.0    999000   999000   999.0    999000   999.0
 288   21:10   17.9    63    6.6   283     7.6   999.00    694.2    999.0    999000   999000   999.0    999000   999.0
 288   21:15   17.7    61    7.1   283     7.9   999.00    694.2    999.0    999000   999000   999.0    999000   999.0
 288   21:20   17.8    61    6.9   283     7.9   999.00    694.2    999.0    999000   999000   999.0    999000   999.0
 288   21:25   17.8    63    7.7   283     8.7   999.00    694.2    999.0    999000   999000   999.0    999000   999.0
 288   21:30   18.0    62    7.9   283     8.9   999.00    694.2    999.0    999000   999000   999.0    999000   999.0
 288   21:35   18.0    64    8.2   283     9.4   999.00    694.3    999.0    999000   999000   999.0    999000   999.0
 288   21:40   18.9    56    8.8   283    10.0   999.00    694.3    999.0    999000   999000   999.0    999000   999.0
 288   21:45   19.9    42    8.9   284    10.0   999.00    694.3    999.0    999000   999000   999.0    999000   999.0
 288   21:50   20.1    42    8.7   284    10.0   999.00    694.3    999.0    999000   999000   999.0    999000   999.0
 288   21:55   20.5    38    8.5   284     9.1   999.00    694.3    999.0    999000   999000   999.0    999000   999.0
 288   22:00   20.8    36    8.5   284     9.2   999.00    694.4    999.0    999000   999000   999.0    999000   999.0
 288   22:05   20.3    44    8.5   284    10.0   999.00    694.4    999.0    999000   999000   999.0    999000   999.0
 288   22:10   19.7    47    7.8   284    10.0   999.00    694.4    999.0    999000   999000   999.0    999000   999.0
 288   22:15   19.8    46    7.8   284     9.4   999.00    694.4    999.0    999000   999000   999.0    999000   999.0
 288   22:20   19.5    52    9.3   291    11.1   999.00    694.4    999.0    999000   999000   999.0    999000   999.0
 288   22:25   19.3    58    9.8   305    11.7   999.00    694.4    999.0    999000   999000   999.0    999000   999.0
 288   22:30   19.3    58   10.0   307    11.8   999.00    694.3    999.0    999000   999000   999.0    999000   999.0
 288   22:35   19.4    58   10.2   308    11.7   999.00    694.4    999.0    999000   999000   999.0    999000   999.0
 288   22:40   20.1    47    9.6   308    11.3   999.00    694.4    999.0    999000   999000   999.0    999000   999.0
 288   22:45   20.5    44    9.5   308    11.1   999.00    694.5    999.0    999000   999000   999.0    999000   999.0
 288   22:50   20.2    52    9.9   308    11.5   999.00    694.5    999.0    999000   999000   999.0    999000   999.0
 288   22:55   19.0    60   10.6   310    12.2   999.00    694.5    999.0    999000   999000   999.0    999000   999.0
 288   23:00   19.7    54   10.7   311    13.0   999.00    694.5    999.0    999000   999000   999.0    999000   999.0
 288   23:05   20.3    49   10.4   312    12.6   999.00    694.5    999.0    999000   999000   999.0    999000   999.0
 288   23:10   20.6    48    9.3   312    11.5   999.00    694.4    999.0    999000   999000   999.0    999000   999.0
 288   23:15   21.7    56    8.7   312     9.4   999.00    694.5    999.0    999000   999000   999.0    999000   999.0
 288   23:20   23.0    71    7.7   312     8.7   999.00    694.5    999.0    999000   999000   999.0    999000   999.0
 288   23:25   22.5    64    8.6   312    10.4   999.00    694.5    999.0    999000   999000   999.0    999000   999.0
 288   23:30   22.4    58    8.6   312     9.4   999.00    694.4    999.0    999000   999000   999.0    999000   999.0
 288   23:35   23.0    68    8.0   312     8.9   999.00    694.4    999.0    999000   999000   999.0    999000   999.0
 288   23:40   23.3    72    8.0   312     8.5   999.00    694.4    999.0    999000   999000   999.0    999000   999.0
 288   23:45   23.4    70    7.4   312     8.3   999.00    694.4    999.0    999000   999000   999.0    999000   999.0
 288   23:50   23.5    69    7.8   312     8.7   999.00    694.4    999.0    999000   999000   999.0    999000   999.0
 288   23:55   23.6    71    7.4   312     8.9   999.00    694.4    999.0    999000   999000   999.0    999000   999.0
 289    0:00   23.6    79    7.8   312    10.0   999.00    694.4    999.0    999000   999000   999.0    999000   999.0
 289    0:05   23.6    77    7.5   312     8.7   999.00    694.4    999.0    999000   999000   999.0    999000   999.0
 289    0:10   23.7    74    7.8   312     9.6   999.00    694.5    999.0    999000   999000   999.0    999000   999.0
 289    0:15   23.6    72    7.5   312     8.9   999.00    694.5    999.0    999000   999000   999.0    999000   999.0
 289    0:20   23.3    73    7.3   312     8.7   999.00    694.5    999.0    999000   999000   999.0    999000   999.0
 289    0:25   23.1    74    7.7   312     8.9   999.00    694.6    999.0    999000   999000   999.0    999000   999.0
 289    0:30   23.2    73    8.1   312    10.2   999.00    694.6    999.0    999000   999000   999.0    999000   999.0
 289    0:35   23.2    71    7.7   312     8.9   999.00    694.6    999.0    999000   999000   999.0    999000   999.0
 289    0:40   23.3    70    7.6   312     8.3   999.00    694.6    999.0    999000   999000   999.0    999000   999.0
 289    0:45   23.2    70    7.7   312     8.7   999.00    694.6    999.0    999000   999000   999.0    999000   999.0
 289    0:50   23.2    71    8.0   312     8.9   999.00    694.6    999.0    999000   999000   999.0    999000   999.0
 289    0:55   23.1    70    7.8   312     9.1   999.00    694.7    999.0    999000   999000   999.0    999000   999.0
 289    1:00   23.1    69    8.0   312     8.7   999.00    694.6    999.0    999000   999000   999.0    999000   999.0
 289    1:05   23.1    68    8.4   312     9.1   999.00    694.7    999.0    999000   999000   999.0    999000   999.0
 289    1:10   23.2    67    8.5   312     9.1   999.00    694.7    999.0    999000   999000   999.0    999000   999.0
 289    1:15   23.1    64    9.0   312    10.6   999.00    694.8    999.0    999000   999000   999.0    999000   999.0
 289    1:20   22.9    60    9.4   312    10.4   999.00    694.7    999.0    999000   999000   999.0    999000   999.0
 289    1:25   22.8    60    8.9   312    10.2   999.00    694.7    999.0    999000   999000   999.0    999000   999.0
 289    1:30   22.6    64    9.0   312     9.8   999.00    694.7    999.0    999000   999000   999.0    999000   999.0
 289    1:35   22.9    70    9.0   312    10.4   999.00    694.6    999.0    999000   999000   999.0    999000   999.0
 289    1:40   23.8    73    8.6   312     9.6   999.00    694.7    999.0    999000   999000   999.0    999000   999.0
 289    1:45   24.0    73    8.0   312     9.2   999.00    694.7    999.0    999000   999000   999.0    999000   999.0
 289    1:50   23.9    73    8.8   312     9.8   999.00    694.7    999.0    999000   999000   999.0    999000   999.0
 289    1:55   23.6    72    8.6   312     9.8   999.00    694.6    999.0    999000   999000   999.0    999000   999.0
 289    2:00   23.6    73    7.5   312     8.3   999.00    694.6    999.0    999000   999000   999.0    999000   999.0
 289    2:05   23.8    74    7.6   312     8.1   999.00    694.6    999.0    999000   999000   999.0    999000   999.0
 289    2:10   23.8    76    7.6   312     8.5   999.00    694.6    999.0    999000   999000   999.0    999000   999.0
 289    2:15   23.4    78    7.0   312     8.1   999.00    694.5    999.0    999000   999000   999.0    999000   999.0
 289    2:20   22.7    82    7.3   312     8.3   999.00    694.6    999.0    999000   999000   999.0    999000   999.0
 289    2:25   22.9    80    8.3   312     9.2   999.00    694.6    999.0    999000   999000   999.0    999000   999.0
 289    2:30   23.0    77    8.3   312     9.4   999.00    694.5    999.0    999000   999000   999.0    999000   999.0
 289    2:35   23.1    82    7.7   312     9.4   999.00    694.6    999.0    999000   999000   999.0    999000   999.0
 289    2:40   23.2    85    7.3   312     8.7   999.00    694.6    999.0    999000   999000   999.0    999000   999.0
 289    2:45   23.3    85    8.4   312    10.4   999.00    694.5    999.0    999000   999000   999.0    999000   999.0
 289    2:50   23.5    83    8.2   312     9.4   999.00    694.5    999.0    999000   999000   999.0    999000   999.0
 289    2:55   23.5    83    8.1   312     9.6   999.00    694.5    999.0    999000   999000   999.0    999000   999.0
 289    3:00   23.5    82    7.9   312    10.0   999.00    694.4    999.0    999000   999000   999.0    999000   999.0
 289    3:05   23.5    82    9.3   312    10.7   999.00    694.3    999.0    999000   999000   999.0    999000   999.0
 289    3:10   23.7    81    9.5   313    11.1   999.00    694.3    999.0    999000   999000   999.0    999000   999.0
 289    3:15   23.8    79   10.2   313    11.3   999.00    694.4    999.0    999000   999000   999.0    999000   999.0
 289    3:20   24.1    76    9.8   313    11.5   999.00    694.4    999.0    999000   999000   999.0    999000   999.0
 289    3:25   24.1    75    9.6   314    11.8   999.00    694.5    999.0    999000   999000   999.0    999000   999.0
 289    3:30   23.8    76    9.4   314    11.1   999.00    694.5    999.0    999000   999000   999.0    999000   999.0
 289    3:35   23.6    78    9.5   314    11.5   999.00    694.5    999.0    999000   999000   999.0    999000   999.0
 289    3:40   23.5    79    9.9   314    11.1   999.00    694.4    999.0    999000   999000   999.0    999000   999.0
 289    3:45   23.6    76    9.9   315    11.8   999.00    694.5    999.0    999000   999000   999.0    999000   999.0
 289    3:50   23.7    76    9.6   315    12.0   999.00    694.5    999.0    999000   999000   999.0    999000   999.0
 289    3:55   23.2    82    9.8   316    12.2   999.00    694.6    999.0    999000   999000   999.0    999000   999.0
 289    4:00   22.9    84    9.8   316    12.4   999.00    694.5    999.0    999000   999000   999.0    999000   999.0
 289    4:05   23.1    82    9.8   316    11.7   999.00    694.5    999.0    999000   999000   999.0    999000   999.0
 289    4:10   23.3    79    9.9   316    12.2   999.00    694.5    999.0    999000   999000   999.0    999000   999.0
 289    4:15   23.2    79   10.5   317    12.0   999.00    694.5    999.0    999000   999000   999.0    999000   999.0
 289    4:20   23.2    78   10.6   324    12.2   999.00    694.5    999.0    999000   999000   999.0    999000   999.0

Return to DRI Storm Peak Lab. graphs page.


Western Regional Climate Center,wrcc@dri.edu